createdAt,value
2018-12-11T00:00:34.028Z,0.73
2018-12-11T00:03:00.082Z,0.30
2018-12-11T00:05:26.164Z,0.50
2018-12-11T00:07:52.229Z,0.30
2018-12-11T00:10:18.733Z,0.50
2018-12-11T00:12:44.800Z,0.30
2018-12-11T00:15:10.836Z,0.30
2018-12-11T00:17:36.908Z,0.50
2018-12-11T00:20:04.097Z,0.60
2018-12-11T00:22:30.166Z,0.57
2018-12-11T00:24:56.210Z,0.50
2018-12-11T00:27:22.299Z,0.57
2018-12-11T00:29:48.355Z,0.80
2018-12-11T00:32:14.396Z,1.37
2018-12-11T00:34:40.491Z,1.37
2018-12-11T00:37:06.533Z,0.60
2018-12-11T00:39:32.567Z,0.90
2018-12-11T00:41:58.636Z,1.00
2018-12-11T00:44:24.664Z,0.97
2018-12-11T00:46:50.820Z,0.43
2018-12-11T00:49:16.847Z,0.70
2018-12-11T00:51:42.935Z,0.80
2018-12-11T00:54:08.960Z,0.40
2018-12-11T00:56:35.060Z,0.50
2018-12-11T00:59:01.292Z,0.70
2018-12-11T01:01:27.326Z,0.50
2018-12-11T01:03:53.396Z,0.77
2018-12-11T01:06:21.518Z,0.73
2018-12-11T01:08:47.580Z,0.77
2018-12-11T01:11:13.580Z,0.77
2018-12-11T01:13:39.627Z,0.83
2018-12-11T01:16:05.705Z,0.70
2018-12-11T01:18:31.779Z,1.43
2018-12-11T01:20:57.859Z,0.60
2018-12-11T01:23:23.983Z,0.80
2018-12-11T01:25:50.231Z,0.40
2018-12-11T01:28:16.277Z,0.83
2018-12-11T01:30:42.469Z,0.57
2018-12-11T01:33:08.450Z,0.83
2018-12-11T01:35:34.535Z,0.53
2018-12-11T01:38:00.557Z,0.53
2018-12-11T01:40:26.584Z,1.33
2018-12-11T01:42:52.642Z,1.20
2018-12-11T01:45:18.713Z,0.57
2018-12-11T01:47:44.793Z,1.13
2018-12-11T01:50:10.832Z,0.80
2018-12-11T01:52:36.898Z,0.83
2018-12-11T01:55:03.698Z,0.83
2018-12-11T01:57:29.756Z,1.53
2018-12-11T02:00:02.932Z,1.33
2018-12-11T02:02:29.315Z,1.67
2018-12-11T02:04:55.343Z,0.97
2018-12-11T02:07:21.403Z,1.80
2018-12-11T02:09:47.526Z,0.83
2018-12-11T02:12:13.658Z,0.97
2018-12-11T02:14:39.705Z,1.10
2018-12-11T02:17:05.923Z,1.50
2018-12-11T02:19:32.043Z,1.17
2018-12-11T02:21:58.101Z,1.00
2018-12-11T02:24:24.203Z,0.70
2018-12-11T02:26:50.278Z,1.30
2018-12-11T02:29:16.340Z,1.30
2018-12-11T02:31:42.477Z,1.20
2018-12-11T02:34:08.646Z,0.73
2018-12-11T02:36:34.695Z,1.50
2018-12-11T02:39:00.736Z,0.97
2018-12-11T02:41:26.793Z,1.47
2018-12-11T02:43:52.868Z,1.07
2018-12-11T02:46:18.945Z,1.00
2018-12-11T02:48:44.996Z,1.30
2018-12-11T02:51:11.053Z,1.47
2018-12-11T02:53:37.101Z,2.00
2018-12-11T02:56:03.433Z,1.13
2018-12-11T02:58:29.475Z,1.80
2018-12-11T03:00:55.922Z,1.40
2018-12-11T03:03:21.957Z,1.47
2018-12-11T03:05:48.019Z,1.80
2018-12-11T03:11:09.742Z,1.00
2018-12-11T03:13:35.787Z,1.20
2018-12-11T03:16:01.867Z,1.43
2018-12-11T03:18:27.988Z,2.23
2018-12-11T03:20:54.089Z,1.20
2018-12-11T03:23:20.146Z,1.70
2018-12-11T03:25:46.192Z,1.17
2018-12-11T03:28:12.245Z,1.97
2018-12-11T03:30:38.434Z,1.60
2018-12-11T03:33:04.484Z,1.30
2018-12-11T03:35:30.557Z,1.97
2018-12-11T03:37:56.615Z,1.57
2018-12-11T03:40:22.654Z,3.93
2018-12-11T03:42:48.706Z,1.60
2018-12-11T03:45:14.802Z,1.43
2018-12-11T03:47:40.857Z,2.00
2018-12-11T03:50:07.104Z,1.63
2018-12-11T03:52:33.223Z,1.50
2018-12-11T03:54:59.300Z,1.87
2018-12-11T03:57:25.461Z,1.60
2018-12-11T03:59:51.554Z,2.17
2018-12-11T04:02:18.015Z,1.57
2018-12-11T04:04:44.066Z,1.80
2018-12-11T04:07:10.121Z,1.70
2018-12-11T04:09:36.172Z,2.30
2018-12-11T04:12:03.148Z,1.40
2018-12-11T04:14:29.297Z,1.40
2018-12-11T04:16:55.540Z,1.47
2018-12-11T04:19:21.578Z,1.07
2018-12-11T04:21:47.601Z,1.67
2018-12-11T04:24:13.676Z,1.73
2018-12-11T04:26:39.716Z,1.63
2018-12-11T04:29:05.721Z,1.70
2018-12-11T04:31:31.799Z,1.73
2018-12-11T04:33:57.843Z,0.80
2018-12-11T04:36:23.912Z,2.43
2018-12-11T04:38:49.948Z,1.20
2018-12-11T04:41:16.138Z,1.00
2018-12-11T04:43:42.135Z,1.47
2018-12-11T04:46:08.197Z,1.93
2018-12-11T04:48:34.371Z,1.20
2018-12-11T04:51:00.415Z,1.23
2018-12-11T04:53:26.450Z,1.20
2018-12-11T04:55:52.522Z,1.10
2018-12-11T04:58:18.558Z,0.83
2018-12-11T05:00:44.606Z,0.87
2018-12-11T05:03:10.941Z,1.17
2018-12-11T05:05:36.972Z,0.90
2018-12-11T05:08:05.186Z,1.17
2018-12-11T05:10:31.219Z,1.13
2018-12-11T05:12:57.332Z,1.13
2018-12-11T05:15:23.431Z,1.20
2018-12-11T05:17:49.453Z,1.13
2018-12-11T05:20:15.503Z,1.07
2018-12-11T05:22:41.546Z,1.07
2018-12-11T05:25:07.595Z,0.93
2018-12-11T05:27:33.664Z,0.87
2018-12-11T05:29:59.717Z,0.80
2018-12-11T05:32:25.767Z,0.80
2018-12-11T05:34:51.841Z,1.40
2018-12-11T05:37:18.163Z,1.60
2018-12-11T05:39:44.173Z,1.43
2018-12-11T05:42:10.212Z,1.33
2018-12-11T05:44:36.268Z,1.30
2018-12-11T05:47:02.357Z,1.33
2018-12-11T05:49:28.407Z,2.43
2018-12-11T05:52:01.407Z,1.60
2018-12-11T05:54:27.469Z,1.23
2018-12-11T05:56:53.533Z,2.10
2018-12-11T05:59:19.637Z,1.30
2018-12-11T06:01:45.674Z,1.40
2018-12-11T06:04:12.000Z,1.10
2018-12-11T06:06:38.041Z,1.50
2018-12-11T06:09:05.214Z,1.30
2018-12-11T06:11:31.306Z,2.97
2018-12-11T06:13:57.360Z,2.27
2018-12-11T06:16:23.779Z,2.00
2018-12-11T06:18:49.951Z,1.43
2018-12-11T06:21:16.061Z,1.97
2018-12-11T06:23:42.101Z,2.07
2018-12-11T06:26:08.193Z,2.23
2018-12-11T06:28:34.226Z,3.03
2018-12-11T06:31:00.312Z,2.23
2018-12-11T06:33:26.321Z,1.77
2018-12-11T06:35:52.336Z,2.10
2018-12-11T06:38:18.367Z,2.30
2018-12-11T06:40:44.462Z,3.70
2018-12-11T06:43:10.528Z,3.53
2018-12-11T06:45:36.579Z,3.30
2018-12-11T06:48:02.705Z,2.70
2018-12-11T06:50:28.775Z,2.83
2018-12-11T06:52:54.817Z,3.97
2018-12-11T06:55:20.898Z,3.70
2018-12-11T06:57:53.773Z,3.17
2018-12-11T07:00:19.842Z,3.27
2018-12-11T07:02:45.915Z,2.63
2018-12-11T07:05:12.126Z,4.10
2018-12-11T07:07:38.206Z,3.20
2018-12-11T07:10:05.220Z,2.63
2018-12-11T07:12:31.276Z,3.67
2018-12-11T07:14:57.320Z,2.93
2018-12-11T07:17:23.467Z,3.40
2018-12-11T07:19:49.507Z,2.87
2018-12-11T07:22:15.590Z,3.70
2018-12-11T07:24:41.660Z,2.90
2018-12-11T07:27:07.717Z,3.03
2018-12-11T07:29:33.752Z,2.97
2018-12-11T07:35:28.424Z,2.23
2018-12-11T07:37:54.482Z,3.00
2018-12-11T07:40:20.547Z,3.10
2018-12-11T07:42:46.616Z,2.97
2018-12-11T07:45:12.706Z,2.70
2018-12-11T07:47:38.847Z,2.10
2018-12-11T07:50:05.156Z,3.33
2018-12-11T07:52:31.318Z,2.30
2018-12-11T07:54:57.384Z,1.67
2018-12-11T07:57:23.470Z,1.97
2018-12-11T07:59:49.488Z,2.47
2018-12-11T08:02:15.569Z,4.57
2018-12-11T08:04:41.654Z,1.53
2018-12-11T08:07:07.888Z,2.50
2018-12-11T08:09:33.880Z,3.07
2018-12-11T08:11:59.968Z,3.03
2018-12-11T08:14:25.987Z,2.50
2018-12-11T08:16:59.078Z,1.53
2018-12-11T08:19:25.122Z,1.87
2018-12-11T08:21:51.194Z,2.37
2018-12-11T08:24:17.232Z,2.27
2018-12-11T08:26:43.259Z,1.70
2018-12-11T08:29:09.341Z,2.03
2018-12-11T08:31:35.408Z,1.63
2018-12-11T08:34:01.515Z,2.00
2018-12-11T08:36:27.575Z,1.33
2018-12-11T08:38:53.656Z,2.27
2018-12-11T08:41:19.688Z,2.00
2018-12-11T08:43:45.756Z,1.73
2018-12-11T08:46:11.848Z,1.33
2018-12-11T08:48:37.854Z,2.50
2018-12-11T08:51:03.959Z,1.37
2018-12-11T08:53:29.988Z,1.63
2018-12-11T08:55:56.066Z,1.63
2018-12-11T08:58:22.083Z,1.30
2018-12-11T09:00:48.109Z,1.60
2018-12-11T09:03:14.171Z,1.63
2018-12-11T09:05:40.195Z,1.33
2018-12-11T09:08:06.542Z,1.33
2018-12-11T09:10:32.634Z,1.57
2018-12-11T09:12:58.684Z,1.93
2018-12-11T09:15:24.751Z,2.27
2018-12-11T09:17:50.762Z,1.17
2018-12-11T09:20:16.865Z,1.50
2018-12-11T09:22:49.826Z,1.30
2018-12-11T09:25:15.875Z,1.40
2018-12-11T09:27:41.923Z,2.70
2018-12-11T09:30:08.267Z,1.40
2018-12-11T09:32:34.458Z,3.30
2018-12-11T09:35:00.505Z,2.03
2018-12-11T09:37:26.618Z,1.20
2018-12-11T09:39:52.673Z,2.07
2018-12-11T09:42:18.759Z,1.40
2018-12-11T09:44:44.793Z,1.57
2018-12-11T09:47:10.854Z,1.37
2018-12-11T09:49:36.897Z,1.53
2018-12-11T09:52:02.959Z,1.93
2018-12-11T09:54:29.117Z,2.30
2018-12-11T09:56:55.148Z,1.40
2018-12-11T09:59:23.579Z,2.70
2018-12-11T10:01:49.277Z,1.37
2018-12-11T10:04:15.313Z,1.57
2018-12-11T10:06:41.392Z,2.00
2018-12-11T10:09:07.640Z,2.17
2018-12-11T10:11:33.707Z,2.43
2018-12-11T10:13:59.803Z,1.50
2018-12-11T10:16:25.834Z,1.60
2018-12-11T10:18:51.932Z,1.90
2018-12-11T10:21:17.968Z,1.73
2018-12-11T10:23:44.332Z,1.73
2018-12-11T10:26:10.397Z,1.23
2018-12-11T10:28:36.468Z,2.10
2018-12-11T10:31:02.642Z,1.77
2018-12-11T10:33:28.701Z,2.33
2018-12-11T10:35:54.747Z,1.87
2018-12-11T10:38:20.841Z,1.47
2018-12-11T10:40:46.893Z,2.87
2018-12-11T10:43:13.055Z,1.87
2018-12-11T10:45:39.074Z,1.20
2018-12-11T10:48:05.081Z,1.37
2018-12-11T10:50:31.159Z,2.00
2018-12-11T10:52:57.194Z,1.70
2018-12-11T10:55:23.232Z,1.23
2018-12-11T10:57:49.286Z,1.70
2018-12-11T11:00:21.306Z,2.37
2018-12-11T11:02:53.286Z,2.40
2018-12-11T11:05:19.353Z,2.27
2018-12-11T11:07:45.529Z,1.77
2018-12-11T11:10:11.816Z,2.57
2018-12-11T11:12:38.010Z,2.43
2018-12-11T11:15:05.227Z,0.97
2018-12-11T11:17:31.264Z,1.23
2018-12-11T11:19:57.356Z,2.63
2018-12-11T11:22:23.403Z,1.53
2018-12-11T11:24:49.497Z,2.73
2018-12-11T11:27:15.524Z,1.50
2018-12-11T11:29:41.559Z,1.60
2018-12-11T11:32:07.600Z,1.90
2018-12-11T11:34:37.750Z,1.90
2018-12-11T11:37:03.810Z,1.27
2018-12-11T11:39:30.166Z,2.07
2018-12-11T11:41:56.235Z,2.20
2018-12-11T11:44:22.314Z,3.43
2018-12-11T11:46:48.365Z,2.33
2018-12-11T11:49:14.768Z,1.47
2018-12-11T11:51:40.926Z,1.57
2018-12-11T11:54:06.989Z,1.67
2018-12-11T11:56:33.026Z,1.77
2018-12-11T11:58:59.121Z,1.30
2018-12-11T12:01:25.202Z,1.73
2018-12-11T12:03:51.418Z,1.17
2018-12-11T12:06:18.271Z,2.57
2018-12-11T12:08:44.430Z,1.20
2018-12-11T12:11:10.613Z,1.33
2018-12-11T12:13:36.662Z,2.30
2018-12-11T12:16:02.705Z,1.97
2018-12-11T12:18:28.753Z,2.03
2018-12-11T12:20:54.823Z,1.30
2018-12-11T12:23:20.872Z,2.00
2018-12-11T12:25:46.883Z,1.80
2018-12-11T12:28:12.951Z,1.30
2018-12-11T12:30:39.312Z,1.00
2018-12-11T12:33:05.372Z,1.90
2018-12-11T12:35:31.473Z,2.27
2018-12-11T12:37:57.473Z,2.13
2018-12-11T12:40:23.493Z,1.47
2018-12-11T12:42:49.541Z,1.27
2018-12-11T12:45:15.612Z,1.37
2018-12-11T12:47:41.656Z,1.83
2018-12-11T12:50:07.673Z,0.83
2018-12-11T12:52:33.692Z,2.50
2018-12-11T12:54:59.739Z,1.77
2018-12-11T12:57:25.786Z,1.10
2018-12-11T12:59:51.828Z,1.97
2018-12-11T13:02:17.867Z,2.13
2018-12-11T13:04:43.944Z,1.70
2018-12-11T13:07:09.973Z,2.27
2018-12-11T13:09:36.057Z,1.13
2018-12-11T13:12:02.261Z,1.97
2018-12-11T13:14:28.281Z,1.37
2018-12-11T13:16:54.325Z,1.17
2018-12-11T13:19:20.405Z,1.03
2018-12-11T13:21:46.424Z,1.60
2018-12-11T13:24:12.500Z,1.53
2018-12-11T13:26:38.577Z,1.47
2018-12-11T13:29:04.648Z,1.47
2018-12-11T13:31:30.686Z,1.10
2018-12-11T13:33:56.731Z,1.47
2018-12-11T13:36:22.814Z,1.57
2018-12-11T13:38:48.979Z,3.03
2018-12-11T13:41:15.160Z,2.23
2018-12-11T13:43:41.305Z,1.40
2018-12-11T13:46:07.328Z,0.90
2018-12-11T13:48:33.500Z,2.07
2018-12-11T13:50:59.707Z,2.70
2018-12-11T13:53:25.885Z,2.20
2018-12-11T13:55:51.905Z,1.40
2018-12-11T13:58:18.387Z,1.80
2018-12-11T14:00:44.432Z,1.40
2018-12-11T14:03:10.498Z,2.33
2018-12-11T14:05:36.642Z,1.43
2018-12-11T14:08:02.698Z,1.97
2018-12-11T14:10:28.721Z,2.63
2018-12-11T14:12:54.936Z,1.73
2018-12-11T14:15:21.063Z,0.87
2018-12-11T14:17:47.089Z,2.63
2018-12-11T14:20:13.113Z,1.33
2018-12-11T14:22:39.937Z,1.47
2018-12-11T14:25:06.240Z,2.47
2018-12-11T14:27:32.271Z,2.03
2018-12-11T14:29:58.651Z,2.50
2018-12-11T14:32:24.762Z,1.77
2018-12-11T14:34:50.777Z,2.97
2018-12-11T14:37:16.869Z,1.23
2018-12-11T14:39:42.911Z,1.07
2018-12-11T14:42:09.084Z,1.43
2018-12-11T14:44:35.089Z,1.93
2018-12-11T14:47:01.165Z,1.93
2018-12-11T14:49:27.210Z,2.60
2018-12-11T14:51:53.266Z,1.50
2018-12-11T14:54:19.498Z,2.60
2018-12-11T14:56:45.582Z,1.30
2018-12-11T14:59:11.595Z,2.03
2018-12-11T15:01:37.682Z,1.70
2018-12-11T15:04:03.738Z,1.70
2018-12-11T15:06:29.887Z,1.77
2018-12-11T15:08:57.959Z,1.70
2018-12-11T15:11:24.024Z,2.27
2018-12-11T15:13:50.298Z,1.93
2018-12-11T15:16:16.717Z,2.13
2018-12-11T15:18:42.845Z,2.43
2018-12-11T15:21:08.925Z,1.87
2018-12-11T15:23:35.013Z,2.27
2018-12-11T15:26:01.052Z,2.57
2018-12-11T15:28:27.097Z,2.57
2018-12-11T15:31:08.043Z,1.53
2018-12-11T15:33:34.082Z,3.07
2018-12-11T15:36:00.157Z,1.90
2018-12-11T15:38:26.171Z,2.93
2018-12-11T15:40:52.225Z,2.13
2018-12-11T15:43:18.356Z,1.67
2018-12-11T15:45:44.396Z,1.73
2018-12-11T15:48:10.461Z,5.13
2018-12-11T15:50:36.524Z,2.33
2018-12-11T15:53:02.557Z,4.10
2018-12-11T15:55:28.607Z,3.40
2018-12-11T15:57:54.671Z,2.37
2018-12-11T16:00:20.721Z,2.57
2018-12-11T16:02:46.779Z,3.50
2018-12-11T16:05:12.826Z,2.57
2018-12-11T16:07:38.998Z,3.47
2018-12-11T16:10:05.314Z,2.40
2018-12-11T16:12:31.364Z,3.20
2018-12-11T16:14:57.472Z,2.33
2018-12-11T16:17:23.499Z,3.03
2018-12-11T16:19:49.559Z,2.27
2018-12-11T16:22:15.585Z,3.97
2018-12-11T16:24:41.634Z,3.53
2018-12-11T16:27:07.686Z,3.07
2018-12-11T16:29:33.761Z,4.27
2018-12-11T16:31:59.834Z,2.30
2018-12-11T16:34:25.897Z,3.93
2018-12-11T16:36:51.937Z,3.60
2018-12-11T16:39:17.977Z,3.43
2018-12-11T16:41:44.064Z,3.90
2018-12-11T16:44:10.058Z,2.17
2018-12-11T16:46:36.105Z,3.40
2018-12-11T16:49:02.215Z,3.70
2018-12-11T16:51:28.235Z,4.10
2018-12-11T16:56:49.847Z,4.23
2018-12-11T16:59:15.935Z,5.03
2018-12-11T17:01:41.968Z,4.33
2018-12-11T17:04:08.078Z,2.93
2018-12-11T17:06:34.116Z,4.23
2018-12-11T17:09:00.216Z,6.03
2018-12-11T17:11:26.274Z,5.67
2018-12-11T17:13:52.338Z,3.97
2018-12-11T17:16:18.635Z,3.47
2018-12-11T17:18:44.659Z,4.63
2018-12-11T17:21:10.732Z,5.50
2018-12-11T17:23:51.548Z,4.87
2018-12-11T17:26:17.639Z,2.57
2018-12-11T17:28:43.660Z,4.00
2018-12-11T17:31:09.677Z,2.60
2018-12-11T17:33:35.797Z,2.93
2018-12-11T17:36:01.853Z,3.77
2018-12-11T17:38:27.884Z,4.10
2018-12-11T17:40:53.943Z,4.03
2018-12-11T17:43:19.995Z,5.13
2018-12-11T17:45:46.062Z,3.93
2018-12-11T17:48:12.404Z,2.30
2018-12-11T17:50:39.294Z,4.53
2018-12-11T17:53:05.357Z,2.20
2018-12-11T17:55:31.455Z,4.40
2018-12-11T17:57:57.493Z,3.13
2018-12-11T18:00:23.560Z,2.60
2018-12-11T18:02:49.979Z,2.33
2018-12-11T18:05:16.003Z,3.03
2018-12-11T18:07:42.017Z,1.90
2018-12-11T18:10:08.297Z,3.17
2018-12-11T18:12:34.361Z,2.47
2018-12-11T18:15:00.416Z,2.13
2018-12-11T18:17:26.723Z,1.60
2018-12-11T18:19:52.787Z,1.80
2018-12-11T18:22:18.852Z,3.20
2018-12-11T18:24:44.873Z,1.07
2018-12-11T18:27:10.942Z,1.83
2018-12-11T18:29:37.054Z,1.30
2018-12-11T18:32:03.101Z,0.93
2018-12-11T18:34:29.640Z,0.50
2018-12-11T18:36:55.880Z,3.50
2018-12-11T18:39:21.924Z,1.17
2018-12-11T18:41:47.979Z,1.90
2018-12-11T18:44:14.011Z,0.43
2018-12-11T18:46:40.005Z,1.37
2018-12-11T18:49:06.094Z,0.63
2018-12-11T18:51:32.142Z,0.20
2018-12-11T18:53:58.172Z,1.13
2018-12-11T18:56:24.227Z,2.23
2018-12-11T18:58:50.279Z,0.97
2018-12-11T19:01:16.334Z,0.37
2018-12-11T19:03:42.386Z,0.60
2018-12-11T19:06:08.466Z,0.50
2018-12-11T19:08:34.515Z,1.37
2018-12-11T19:11:00.537Z,0.70
2018-12-11T19:13:26.606Z,1.23
2018-12-11T19:15:53.353Z,0.60
2018-12-11T19:18:19.851Z,1.00
2018-12-11T19:20:46.166Z,0.53
2018-12-11T19:23:15.852Z,0.67
2018-12-11T19:25:41.895Z,0.50
2018-12-11T19:28:07.971Z,1.90
2018-12-11T19:30:34.030Z,0.90
2018-12-11T19:33:00.096Z,0.90
2018-12-11T19:35:26.145Z,1.40
2018-12-11T19:37:52.184Z,0.93
2018-12-11T19:40:18.266Z,1.80
2018-12-11T19:42:44.302Z,0.63
2018-12-11T19:45:10.389Z,0.90
2018-12-11T19:47:36.436Z,0.90
2018-12-11T19:50:04.343Z,0.40
2018-12-11T19:52:30.381Z,0.70
2018-12-11T19:54:56.441Z,0.30
2018-12-11T19:57:22.483Z,0.53
2018-12-11T19:59:48.506Z,0.63
2018-12-11T20:02:14.568Z,0.40
2018-12-11T20:04:40.597Z,1.37
2018-12-11T20:07:06.636Z,0.87
2018-12-11T20:09:33.418Z,1.30
2018-12-11T20:11:59.420Z,0.80
2018-12-11T20:14:25.501Z,0.80
2018-12-11T20:16:51.661Z,0.30
2018-12-11T20:19:17.767Z,0.40
2018-12-11T20:21:43.853Z,1.70
2018-12-11T20:24:09.915Z,1.33
2018-12-11T20:26:39.390Z,2.07
2018-12-11T20:29:04.102Z,1.10
2018-12-11T20:31:30.140Z,0.80
2018-12-11T20:33:56.200Z,0.30
2018-12-11T20:36:22.231Z,1.23
2018-12-11T20:38:48.439Z,1.07
2018-12-11T20:41:14.476Z,0.93
2018-12-11T20:43:40.552Z,0.20
2018-12-11T20:46:06.608Z,1.87
2018-12-11T20:48:32.808Z,0.70
2018-12-11T20:50:58.830Z,1.20
2018-12-11T20:53:24.856Z,0.60
2018-12-11T20:55:50.920Z,0.50
2018-12-11T20:58:16.971Z,0.53
2018-12-11T21:00:43.031Z,0.27
2018-12-11T21:03:09.045Z,0.40
2018-12-11T21:05:35.081Z,0.50
2018-12-11T21:08:01.135Z,1.00
2018-12-11T21:10:27.199Z,1.53
2018-12-11T21:12:53.274Z,0.60
2018-12-11T21:15:19.350Z,0.80
2018-12-11T21:17:45.389Z,0.97
2018-12-11T21:20:11.632Z,0.40
2018-12-11T21:22:37.785Z,0.20
2018-12-11T21:25:04.305Z,1.90
2018-12-11T21:27:30.335Z,1.13
2018-12-11T21:29:56.364Z,1.30
2018-12-11T21:32:22.415Z,1.80
2018-12-11T21:34:48.471Z,1.67
2018-12-11T21:37:14.518Z,2.07
2018-12-11T21:39:40.593Z,1.53
2018-12-11T21:42:06.628Z,1.10
2018-12-11T21:44:32.700Z,1.00
2018-12-11T21:46:58.742Z,0.80
2018-12-11T21:49:24.774Z,1.63
2018-12-11T21:51:50.843Z,1.53
2018-12-11T21:54:16.871Z,0.43
2018-12-11T21:56:42.891Z,0.40
2018-12-11T21:59:08.942Z,0.60
2018-12-11T22:01:35.869Z,0.30
2018-12-11T22:04:01.913Z,0.20
2018-12-11T22:06:28.049Z,1.60
2018-12-11T22:08:54.089Z,0.20
2018-12-11T22:11:20.142Z,1.33
2018-12-11T22:13:46.160Z,1.70
2018-12-11T22:16:12.282Z,0.53
2018-12-11T22:18:38.310Z,0.90
2018-12-11T22:21:04.515Z,0.97
2018-12-11T22:23:30.584Z,0.53
2018-12-11T22:25:56.604Z,1.17
2018-12-11T22:28:22.637Z,0.87
2018-12-11T22:30:48.672Z,0.60
2018-12-11T22:33:14.702Z,1.23
2018-12-11T22:35:40.727Z,0.50
2018-12-11T22:38:06.766Z,1.00
2018-12-11T22:40:32.800Z,0.60
2018-12-11T22:42:58.793Z,0.40
2018-12-11T22:45:24.829Z,1.03
2018-12-11T22:47:50.879Z,0.70
2018-12-11T22:50:16.948Z,0.30
2018-12-11T22:52:43.147Z,0.47
2018-12-11T22:55:09.324Z,0.53
2018-12-11T22:57:35.459Z,0.40
2018-12-11T23:00:01.765Z,0.23
2018-12-11T23:02:27.978Z,0.87
2018-12-11T23:04:53.994Z,0.20
2018-12-11T23:07:20.032Z,1.23
2018-12-11T23:09:46.080Z,0.33
2018-12-11T23:12:12.149Z,0.43
2018-12-11T23:14:38.187Z,0.27
2018-12-11T23:17:04.210Z,1.27
2018-12-11T23:19:30.265Z,1.70
2018-12-11T23:21:56.414Z,0.33
2018-12-11T23:24:22.437Z,0.60
2018-12-11T23:26:48.493Z,1.03
2018-12-11T23:29:14.507Z,0.70
2018-12-11T23:31:40.564Z,0.70
2018-12-11T23:34:06.597Z,0.30
2018-12-11T23:36:32.621Z,0.20
2018-12-11T23:38:58.807Z,0.30
2018-12-11T23:41:24.832Z,2.70
2018-12-11T23:43:50.902Z,1.30
2018-12-11T23:46:16.954Z,1.23
2018-12-11T23:48:42.976Z,0.30
2018-12-11T23:51:09.055Z,0.10
2018-12-11T23:53:35.074Z,0.10
2018-12-11T23:56:01.113Z,1.30
2018-12-11T23:58:27.154Z,0.40
